createdAt,value
2018-04-20T00:00:21.060Z,397.15
2018-04-20T00:01:25.164Z,363.98
2018-04-20T00:02:29.279Z,366.27
2018-04-20T00:03:34.181Z,359.95
2018-04-20T00:04:38.280Z,368.92
2018-04-20T00:05:42.518Z,379.90
2018-04-20T00:06:46.663Z,380.73
2018-04-20T00:07:50.792Z,445.10
2018-04-20T00:08:55.016Z,440.35
2018-04-20T00:10:00.220Z,461.83
2018-04-20T00:11:04.497Z,446.63
2018-04-20T00:12:09.575Z,440.05
2018-04-20T00:13:14.336Z,421.77
2018-04-20T00:14:18.600Z,432.27
2018-04-20T00:15:23.683Z,394.73
2018-04-20T00:16:28.256Z,383.25
2018-04-20T00:17:33.328Z,393.88
2018-04-20T00:18:37.593Z,401.15
2018-04-20T00:19:41.896Z,411.40
2018-04-20T00:20:46.988Z,421.45
2018-04-20T00:21:51.344Z,414.27
2018-04-20T00:22:55.680Z,417.15
2018-04-20T00:24:00.053Z,415.88
2018-04-20T00:25:04.435Z,403.35
2018-04-20T00:26:10.150Z,401.08
2018-04-20T00:27:15.106Z,395.60
2018-04-20T00:28:20.157Z,392.25
2018-04-20T00:29:24.443Z,393.73
2018-04-20T00:30:29.392Z,374.75
2018-04-20T00:31:33.485Z,412.75
2018-04-20T00:32:37.588Z,384.05
2018-04-20T00:33:42.132Z,372.95
2018-04-20T00:34:46.492Z,394.83
2018-04-20T00:35:50.768Z,410.60
2018-04-20T00:36:55.027Z,412.65
2018-04-20T00:37:59.292Z,421.85
2018-04-20T00:39:03.583Z,401.83
2018-04-20T00:40:07.873Z,385.33
2018-04-20T00:41:12.969Z,374.67
2018-04-20T00:42:17.221Z,365.90
2018-04-20T00:43:21.497Z,361.00
2018-04-20T00:44:25.667Z,355.08
2018-04-20T00:45:30.056Z,358.27
2018-04-20T00:46:34.928Z,352.40
2018-04-20T00:47:39.065Z,343.75
2018-04-20T00:48:43.192Z,341.95
2018-04-20T00:49:48.035Z,341.67
2018-04-20T00:50:52.134Z,346.05
2018-04-20T00:51:56.233Z,340.75
2018-04-20T00:53:00.712Z,340.75
2018-04-20T00:54:26.866Z,339.95
2018-04-20T00:55:31.133Z,310.10
2018-04-20T00:56:35.400Z,328.83
2018-04-20T00:57:39.974Z,312.08
2018-04-20T00:58:44.880Z,315.77
2018-04-20T00:59:49.020Z,313.85
2018-04-20T01:00:53.897Z,313.58
2018-04-20T01:01:58.020Z,312.65
2018-04-20T01:03:02.692Z,309.55
2018-04-20T01:04:07.556Z,291.92
2018-04-20T01:05:12.727Z,290.23
2018-04-20T01:06:16.889Z,282.12
2018-04-20T01:07:21.752Z,275.40
2018-04-20T01:08:25.916Z,281.00
2018-04-20T01:09:30.815Z,270.37
2018-04-20T01:10:34.939Z,275.60
2018-04-20T01:11:39.871Z,267.75
2018-04-20T01:12:43.968Z,272.10
2018-04-20T01:13:48.230Z,252.65
2018-04-20T01:14:52.943Z,257.77
2018-04-20T01:15:57.191Z,243.35
2018-04-20T01:17:02.240Z,239.18
2018-04-20T01:18:06.357Z,245.93
2018-04-20T01:19:11.348Z,240.37
2018-04-20T01:20:16.381Z,232.12
2018-04-20T01:21:20.728Z,226.73
2018-04-20T01:22:24.984Z,221.75
2018-04-20T01:23:29.651Z,217.93
2018-04-20T01:24:34.363Z,221.30
2018-04-20T01:25:38.606Z,211.90
2018-04-20T01:26:43.707Z,209.05
2018-04-20T01:27:48.024Z,207.05
2018-04-20T01:28:53.050Z,208.38
2018-04-20T01:29:59.040Z,209.20
2018-04-20T01:31:03.311Z,196.48
2018-04-20T01:32:07.862Z,189.40
2018-04-20T01:33:12.880Z,186.52
2018-04-20T01:34:17.152Z,192.80
2018-04-20T01:35:21.444Z,184.93
2018-04-20T01:36:25.714Z,178.12
2018-04-20T01:37:30.029Z,175.48
2018-04-20T01:38:34.254Z,162.57
2018-04-20T01:39:38.461Z,168.87
2018-04-20T01:40:42.667Z,163.55
2018-04-20T01:41:46.881Z,166.73
2018-04-20T01:42:51.085Z,160.15
2018-04-20T01:43:55.638Z,178.70
2018-04-20T01:44:59.921Z,164.98
2018-04-20T01:46:05.113Z,196.80
2018-04-20T01:47:10.096Z,221.43
2018-04-20T01:48:14.167Z,200.40
2018-04-20T01:49:19.078Z,182.80
2018-04-20T01:50:23.132Z,195.20
2018-04-20T01:51:27.222Z,214.48
2018-04-20T01:52:31.274Z,241.98
2018-04-20T01:53:35.558Z,205.50
2018-04-20T01:54:39.602Z,216.68
2018-04-20T01:55:43.961Z,223.15
2018-04-20T01:56:48.171Z,218.70
2018-04-20T01:57:52.393Z,225.77
2018-04-20T01:58:56.610Z,246.23
2018-04-20T02:00:00.808Z,233.63
2018-04-20T02:01:05.506Z,212.10
2018-04-20T02:02:11.181Z,227.52
2018-04-20T02:03:15.413Z,220.48
2018-04-20T02:04:19.635Z,209.32
2018-04-20T02:05:23.818Z,218.57
2018-04-20T02:06:28.790Z,247.77
2018-04-20T02:07:33.329Z,258.20
2018-04-20T02:08:37.551Z,245.45
2018-04-20T02:09:42.532Z,249.60
2018-04-20T02:10:46.740Z,267.27
2018-04-20T02:11:51.011Z,256.83
2018-04-20T02:12:55.220Z,271.77
2018-04-20T02:13:59.428Z,255.55
2018-04-20T02:15:03.702Z,251.05
2018-04-20T02:16:09.504Z,231.30
2018-04-20T02:17:14.092Z,224.27
2018-04-20T02:18:18.606Z,231.60
2018-04-20T02:19:22.849Z,209.80
2018-04-20T02:20:27.586Z,213.75
2018-04-20T02:21:33.121Z,197.32
2018-04-20T02:22:37.366Z,192.80
2018-04-20T02:23:41.588Z,194.00
2018-04-20T02:24:45.706Z,176.37
2018-04-20T02:25:49.786Z,190.02
2018-04-20T02:26:53.881Z,175.23
2018-04-20T02:27:57.922Z,170.07
2018-04-20T02:29:02.003Z,165.43
2018-04-20T02:30:06.038Z,163.05
2018-04-20T02:31:10.370Z,141.98
2018-04-20T02:32:15.324Z,160.50
2018-04-20T02:33:19.842Z,148.57
2018-04-20T02:34:24.067Z,150.15
2018-04-20T02:35:28.271Z,140.65
2018-04-20T02:36:32.720Z,138.05
2018-04-20T02:37:37.771Z,138.68
2018-04-20T02:38:41.951Z,132.90
2018-04-20T02:39:46.943Z,135.70
2018-04-20T02:40:51.151Z,131.05
2018-04-20T02:41:55.351Z,125.78
2018-04-20T02:42:59.597Z,135.82
2018-04-20T02:44:04.433Z,121.00
2018-04-20T02:45:08.462Z,122.15
2018-04-20T02:46:12.856Z,116.85
2018-04-20T02:47:16.917Z,114.65
2018-04-20T02:48:21.750Z,123.32
2018-04-20T02:49:25.784Z,113.90
2018-04-20T02:50:29.818Z,111.72
2018-04-20T02:51:33.864Z,112.07
2018-04-20T02:52:37.950Z,106.10
2018-04-20T02:53:42.754Z,110.80
2018-04-20T02:54:47.448Z,104.25
2018-04-20T02:55:51.613Z,112.68
2018-04-20T02:56:56.253Z,96.68
2018-04-20T02:58:01.053Z,94.53
2018-04-20T02:59:05.073Z,89.65
2018-04-20T03:00:09.682Z,95.40
2018-04-20T03:01:13.877Z,99.57
2018-04-20T03:02:18.216Z,94.30
2018-04-20T03:03:22.385Z,94.07
2018-04-20T03:04:26.578Z,91.05
2018-04-20T03:05:30.810Z,89.25
2018-04-20T03:06:35.086Z,89.70
2018-04-20T03:07:39.328Z,88.30
2018-04-20T03:08:43.629Z,85.03
2018-04-20T03:09:47.835Z,82.00
2018-04-20T03:10:52.052Z,91.40
2018-04-20T03:11:56.266Z,79.70
2018-04-20T03:13:00.590Z,76.85
2018-04-20T03:14:05.366Z,77.53
2018-04-20T03:15:09.545Z,76.50
2018-04-20T03:16:13.581Z,71.57
2018-04-20T03:17:17.698Z,77.45
2018-04-20T03:18:21.749Z,71.30
2018-04-20T03:19:25.774Z,70.37
2018-04-20T03:20:29.835Z,74.28
2018-04-20T03:21:34.801Z,70.70
2018-04-20T03:22:38.924Z,68.68
2018-04-20T03:23:43.029Z,67.50
2018-04-20T03:24:47.043Z,72.55
2018-04-20T03:25:51.113Z,60.38
2018-04-20T03:26:55.157Z,65.72
2018-04-20T03:27:59.958Z,58.63
2018-04-20T03:29:04.078Z,64.05
2018-04-20T03:30:08.908Z,62.15
2018-04-20T03:31:13.301Z,64.70
2018-04-20T03:32:18.461Z,61.03
2018-04-20T03:33:22.686Z,57.13
2018-04-20T03:34:26.907Z,54.45
2018-04-20T03:35:31.126Z,68.07
2018-04-20T03:36:35.319Z,95.75
2018-04-20T03:37:39.524Z,135.50
2018-04-20T03:38:43.730Z,279.45
2018-04-20T03:39:47.954Z,233.95
2018-04-20T03:40:51.974Z,145.27
2018-04-20T03:41:56.773Z,126.12
2018-04-20T03:43:00.996Z,126.45
2018-04-20T03:44:05.791Z,114.05
2018-04-20T03:45:09.909Z,102.45
2018-04-20T03:46:14.695Z,91.20
2018-04-20T03:47:18.694Z,96.87
2018-04-20T03:48:22.938Z,96.20
2018-04-20T03:49:27.900Z,95.28
2018-04-20T03:50:32.178Z,86.55
2018-04-20T03:51:36.967Z,126.00
2018-04-20T03:52:41.018Z,95.47
2018-04-20T03:53:45.063Z,202.95
2018-04-20T03:54:49.127Z,201.23
2018-04-20T03:55:53.182Z,252.32
2018-04-20T03:56:57.223Z,186.70
2018-04-20T03:58:01.257Z,265.02
2018-04-20T03:59:43.953Z,220.68
2018-04-20T04:00:49.223Z,159.68
2018-04-20T04:01:54.170Z,164.20
2018-04-20T04:02:58.981Z,150.40
2018-04-20T04:04:03.068Z,138.18
2018-04-20T04:05:07.868Z,141.05
2018-04-20T04:06:11.910Z,135.35
2018-04-20T04:07:16.123Z,126.93
2018-04-20T04:08:20.338Z,121.18
2018-04-20T04:09:24.551Z,115.97
2018-04-20T04:10:29.399Z,120.32
2018-04-20T04:11:33.766Z,117.30
2018-04-20T04:12:38.590Z,104.05
2018-04-20T04:13:43.049Z,112.68
2018-04-20T04:14:47.083Z,94.30
2018-04-20T04:15:51.509Z,110.28
2018-04-20T04:17:06.711Z,103.38
2018-04-20T04:18:21.713Z,92.62
2018-04-20T04:20:10.578Z,93.57
2018-04-20T04:21:23.523Z,97.05
2018-04-20T04:24:42.839Z,94.00
2018-04-20T04:28:03.460Z,88.75
2018-04-20T04:29:07.673Z,81.57
2018-04-20T04:30:11.867Z,80.15
2018-04-20T04:31:16.845Z,74.32
2018-04-20T04:32:21.067Z,85.53
2018-04-20T04:33:26.304Z,80.35
2018-04-20T04:34:31.299Z,81.87
2018-04-20T04:35:35.516Z,72.00
2018-04-20T04:36:39.747Z,75.40
2018-04-20T04:37:43.931Z,75.90
2018-04-20T04:38:48.738Z,76.78
2018-04-20T04:39:52.798Z,75.25
2018-04-20T04:40:56.898Z,67.60
2018-04-20T04:42:00.946Z,70.07
2018-04-20T04:43:04.975Z,64.32
2018-04-20T04:44:08.991Z,69.72
2018-04-20T04:45:13.830Z,74.12
2018-04-20T04:46:17.874Z,65.72
2018-04-20T04:47:22.674Z,63.15
2018-04-20T04:48:26.751Z,60.60
2018-04-20T04:49:30.887Z,64.57
2018-04-20T04:50:36.365Z,62.65
2018-04-20T04:51:40.403Z,60.78
2018-04-20T04:52:48.703Z,59.47
2018-04-20T04:53:57.334Z,64.12
2018-04-20T04:55:01.395Z,63.22
2018-04-20T04:56:05.544Z,59.45
2018-04-20T04:57:09.577Z,52.92
2018-04-20T04:58:13.866Z,59.58
2018-04-20T04:59:18.666Z,55.55
2018-04-20T05:00:22.704Z,58.60
2018-04-20T05:01:26.738Z,56.85
2018-04-20T05:02:30.795Z,55.05
2018-04-20T05:03:34.858Z,54.40
2018-04-20T05:04:38.909Z,54.13
2018-04-20T05:05:43.794Z,53.13
2018-04-20T05:06:47.851Z,51.50
2018-04-20T05:07:52.204Z,59.80
2018-04-20T05:08:56.247Z,50.03
2018-04-20T05:10:00.279Z,51.28
2018-04-20T05:11:04.314Z,47.00
2018-04-20T05:12:09.136Z,49.78
2018-04-20T05:13:14.008Z,49.22
2018-04-20T05:14:18.320Z,50.08
2018-04-20T05:15:22.570Z,44.45
2018-04-20T05:16:27.590Z,48.85
2018-04-20T05:17:32.559Z,44.78
2018-04-20T05:18:36.773Z,42.53
2018-04-20T05:19:41.006Z,46.55
2018-04-20T05:20:45.541Z,42.70
2018-04-20T05:21:50.363Z,41.80
2018-04-20T05:22:55.178Z,41.97
2018-04-20T05:23:59.647Z,46.50
2018-04-20T05:25:04.130Z,43.95
2018-04-20T05:26:08.194Z,43.22
2018-04-20T05:27:13.334Z,47.22
2018-04-20T05:28:18.159Z,40.42
2018-04-20T05:29:23.578Z,41.85
2018-04-20T05:30:28.543Z,40.15
2018-04-20T05:31:33.127Z,38.50
2018-04-20T05:32:37.778Z,40.20
2018-04-20T05:33:42.797Z,40.33
2018-04-20T05:34:47.414Z,36.08
2018-04-20T05:35:52.454Z,35.22
2018-04-20T05:36:57.479Z,38.72
2018-04-20T05:38:02.582Z,37.25
2018-04-20T05:39:07.569Z,34.15
2018-04-20T05:40:12.506Z,34.63
2018-04-20T05:41:17.565Z,34.63
2018-04-20T05:42:24.170Z,38.10
2018-04-20T05:43:29.361Z,38.90
2018-04-20T05:44:34.416Z,34.47
2018-04-20T05:45:38.548Z,34.40
2018-04-20T05:46:43.463Z,31.05
2018-04-20T05:47:47.713Z,32.60
2018-04-20T05:48:52.672Z,34.97
2018-04-20T05:49:57.781Z,31.95
2018-04-20T05:51:02.113Z,31.65
2018-04-20T05:52:07.149Z,32.58
2018-04-20T05:53:12.349Z,33.55
2018-04-20T05:54:16.935Z,29.67
2018-04-20T05:55:21.215Z,29.73
2018-04-20T05:56:25.569Z,29.30
2018-04-20T05:57:29.867Z,25.98
2018-04-20T05:58:34.246Z,29.75
2018-04-20T05:59:38.534Z,31.12
2018-04-20T06:00:43.122Z,32.67
2018-04-20T06:01:48.013Z,27.20
2018-04-20T06:02:52.159Z,29.92
2018-04-20T06:03:57.029Z,30.55
2018-04-20T06:05:02.032Z,33.25
2018-04-20T06:06:06.135Z,27.70
2018-04-20T06:07:10.527Z,30.30
2018-04-20T06:08:15.456Z,26.70
2018-04-20T06:09:19.614Z,33.33
2018-04-20T06:10:24.524Z,29.52
2018-04-20T06:11:28.674Z,29.60
2018-04-20T06:12:33.104Z,29.23
2018-04-20T06:13:38.018Z,24.52
2018-04-20T06:14:42.167Z,29.00
2018-04-20T06:15:46.294Z,25.12
2018-04-20T06:16:51.195Z,29.25
2018-04-20T06:17:55.484Z,31.42
2018-04-20T06:19:00.063Z,25.70
2018-04-20T06:20:04.373Z,23.65
2018-04-20T06:21:08.652Z,29.50
2018-04-20T06:22:13.701Z,25.60
2018-04-20T06:23:18.160Z,24.10
2018-04-20T06:24:23.230Z,26.85
2018-04-20T06:25:27.506Z,28.02
2018-04-20T06:26:31.632Z,23.87
2018-04-20T06:27:36.631Z,22.65
2018-04-20T06:28:40.983Z,24.02
2018-04-20T06:29:45.243Z,23.23
2018-04-20T06:30:49.730Z,25.73
2018-04-20T06:31:53.928Z,24.45
2018-04-20T06:32:58.166Z,23.75
2018-04-20T06:34:02.388Z,23.27
2018-04-20T06:35:07.384Z,22.20
2018-04-20T06:36:11.553Z,21.60
2018-04-20T06:37:15.611Z,23.00
2018-04-20T06:38:20.435Z,22.20
2018-04-20T06:39:25.262Z,22.37
2018-04-20T06:40:29.362Z,23.35
2018-04-20T06:41:34.166Z,20.85
2018-04-20T06:42:38.983Z,20.05
2018-04-20T06:43:43.073Z,21.02
2018-04-20T06:44:47.115Z,21.10
2018-04-20T06:45:51.326Z,19.42
2018-04-20T06:46:55.518Z,21.55
2018-04-20T06:47:59.746Z,21.83
2018-04-20T06:49:04.035Z,19.67
2018-04-20T06:50:09.019Z,21.60
2018-04-20T06:51:13.254Z,21.60
2018-04-20T06:52:17.510Z,22.83
2018-04-20T06:53:21.747Z,16.23
2018-04-20T06:54:26.188Z,19.65
2018-04-20T06:55:30.575Z,23.17
2018-04-20T06:56:35.673Z,18.17
2018-04-20T06:57:39.910Z,23.65
2018-04-20T06:58:44.970Z,18.55
2018-04-20T06:59:49.209Z,20.30
2018-04-20T07:00:53.522Z,20.48
2018-04-20T07:01:57.756Z,17.42
2018-04-20T07:03:02.740Z,21.08
2018-04-20T07:04:06.953Z,17.10
2018-04-20T07:05:11.274Z,17.60
2018-04-20T07:06:15.517Z,17.35
2018-04-20T07:07:19.771Z,21.37
2018-04-20T07:08:24.077Z,17.62
2018-04-20T07:09:28.307Z,18.37
2018-04-20T07:10:33.336Z,19.08
2018-04-20T07:11:38.297Z,17.05
2018-04-20T07:12:42.542Z,19.37
2018-04-20T07:13:46.818Z,18.33
2018-04-20T07:14:51.059Z,18.17
2018-04-20T07:15:56.711Z,17.73
2018-04-20T07:17:00.971Z,16.05
2018-04-20T07:18:05.193Z,16.30
2018-04-20T07:19:09.410Z,19.15
2018-04-20T07:20:13.669Z,17.12
2018-04-20T07:21:18.147Z,16.70
2018-04-20T07:22:23.135Z,18.33
2018-04-20T07:23:27.268Z,17.25
2018-04-20T07:24:31.344Z,17.55
2018-04-20T07:25:35.487Z,17.50
2018-04-20T07:26:40.365Z,14.87
2018-04-20T07:27:44.395Z,15.50
2018-04-20T07:28:48.524Z,17.52
2018-04-20T07:29:53.206Z,17.50
2018-04-20T07:30:57.255Z,15.40
2018-04-20T07:32:01.382Z,20.30
2018-04-20T07:33:05.663Z,15.50
2018-04-20T07:34:09.900Z,23.73
2018-04-20T07:35:14.136Z,18.02
2018-04-20T07:36:18.372Z,14.40
2018-04-20T07:37:22.622Z,15.90
2018-04-20T07:38:26.883Z,15.85
2018-04-20T07:40:33.447Z,15.98
2018-04-20T07:41:37.569Z,14.82
2018-04-20T07:42:41.854Z,15.88
2018-04-20T07:43:52.270Z,13.70
2018-04-20T07:44:56.511Z,14.27
2018-04-20T07:46:00.841Z,13.20
2018-04-20T07:47:05.078Z,15.57
2018-04-20T07:48:09.332Z,11.70
2018-04-20T07:49:13.591Z,14.38
2018-04-20T07:50:17.807Z,13.15
2018-04-20T07:51:22.003Z,13.80
2018-04-20T07:52:26.347Z,12.52
2018-04-20T07:53:30.600Z,13.90
2018-04-20T07:54:34.819Z,13.35
2018-04-20T07:55:39.073Z,14.30
2018-04-20T07:56:43.616Z,12.98
2018-04-20T07:57:47.845Z,16.58
2018-04-20T07:58:52.050Z,13.02
2018-04-20T07:59:56.382Z,11.70
2018-04-20T08:01:01.466Z,13.27
2018-04-20T08:02:05.692Z,17.77
2018-04-20T08:03:09.932Z,17.92
2018-04-20T08:04:14.159Z,12.57
2018-04-20T08:05:18.363Z,14.85
2018-04-20T08:06:22.632Z,13.15
2018-04-20T08:07:27.371Z,14.40
2018-04-20T08:08:31.615Z,10.40
2018-04-20T08:09:35.676Z,14.43
2018-04-20T08:10:39.745Z,16.40
2018-04-20T08:11:43.840Z,14.60
2018-04-20T08:12:47.946Z,17.92
2018-04-20T08:13:52.164Z,14.43
2018-04-20T08:14:56.379Z,11.85
2018-04-20T08:16:01.312Z,12.13
2018-04-20T08:17:05.397Z,13.70
2018-04-20T08:18:10.222Z,14.63
2018-04-20T08:19:15.070Z,13.40
2018-04-20T08:20:19.122Z,12.05
2018-04-20T08:21:23.189Z,14.95
2018-04-20T08:22:27.266Z,14.02
2018-04-20T08:23:31.340Z,14.60
2018-04-20T08:24:36.296Z,11.48
2018-04-20T08:25:40.387Z,14.60
2018-04-20T08:26:44.543Z,10.90
2018-04-20T08:27:48.595Z,11.18
2018-04-20T08:28:52.668Z,15.73
2018-04-20T08:29:57.509Z,16.58
2018-04-20T08:31:02.427Z,11.75
2018-04-20T08:32:07.316Z,13.90
2018-04-20T08:33:11.465Z,11.73
2018-04-20T08:34:15.712Z,14.50
2018-04-20T08:35:19.731Z,12.85
2018-04-20T08:36:23.895Z,13.30
2018-04-20T08:37:28.862Z,12.20
2018-04-20T08:38:33.091Z,10.77
2018-04-20T08:39:37.344Z,14.75
2018-04-20T08:40:41.547Z,12.57
2018-04-20T08:41:45.798Z,13.68
2018-04-20T08:42:53.136Z,12.68
2018-04-20T08:44:03.889Z,12.88
2018-04-20T08:45:10.133Z,12.05
2018-04-20T08:46:15.456Z,13.93
2018-04-20T08:47:20.954Z,10.68
2018-04-20T08:48:25.962Z,12.23
2018-04-20T08:49:30.210Z,15.43
2018-04-20T08:50:34.430Z,12.45
2018-04-20T08:51:38.670Z,11.95
2018-04-20T08:52:43.125Z,17.65
2018-04-20T08:53:47.807Z,10.55
2018-04-20T08:54:52.063Z,12.02
2018-04-20T08:55:56.334Z,14.05
2018-04-20T08:57:01.387Z,11.85
2018-04-20T08:58:05.595Z,9.50
2018-04-20T08:59:11.372Z,13.20
2018-04-20T09:00:15.603Z,14.25
2018-04-20T09:01:19.923Z,10.45
2018-04-20T09:02:24.253Z,14.73
2018-04-20T09:03:28.565Z,13.07
2018-04-20T09:04:33.559Z,11.32
2018-04-20T09:05:38.558Z,13.38
2018-04-20T09:06:43.663Z,13.20
2018-04-20T09:07:47.722Z,12.07
2018-04-20T09:08:51.838Z,10.48
2018-04-20T09:09:55.907Z,11.00
2018-04-20T09:11:00.787Z,12.95
2018-04-20T09:12:04.890Z,10.52
2018-04-20T09:13:09.024Z,10.95
2018-04-20T09:14:13.090Z,10.93
2018-04-20T09:15:17.198Z,14.25
2018-04-20T09:16:21.348Z,11.35
2018-04-20T09:17:26.629Z,10.45
2018-04-20T09:18:30.752Z,10.80
2018-04-20T09:19:34.966Z,11.23
2018-04-20T09:20:39.085Z,10.57
2018-04-20T09:21:43.429Z,11.88
2018-04-20T09:22:47.490Z,11.93
2018-04-20T09:23:52.392Z,10.90
2018-04-20T09:24:56.605Z,10.00
2018-04-20T09:26:00.761Z,13.23
2018-04-20T09:27:04.995Z,15.85
2018-04-20T09:28:09.187Z,11.98
2018-04-20T09:29:13.322Z,11.90
2018-04-20T09:30:17.622Z,13.48
2018-04-20T09:31:21.701Z,14.57
2018-04-20T09:32:25.863Z,11.40
2018-04-20T09:33:30.740Z,11.68
2018-04-20T09:34:34.904Z,11.60
2018-04-20T09:35:38.978Z,14.82
2018-04-20T09:36:43.816Z,12.27
2018-04-20T09:37:47.930Z,11.18
2018-04-20T09:38:52.681Z,13.95
2018-04-20T09:39:57.530Z,14.05
2018-04-20T09:41:02.382Z,12.30
2018-04-20T09:42:06.671Z,13.15
2018-04-20T09:43:11.025Z,13.07
2018-04-20T09:44:15.271Z,10.52
2018-04-20T09:45:19.515Z,14.48
2018-04-20T09:46:23.763Z,16.33
2018-04-20T09:47:28.075Z,13.30
2018-04-20T09:48:32.354Z,10.90
2018-04-20T09:49:37.359Z,9.68
2018-04-20T09:50:42.427Z,12.40
2018-04-20T09:51:47.869Z,16.55
2018-04-20T09:52:52.289Z,11.27
2018-04-20T09:53:57.332Z,11.43
2018-04-20T09:55:01.567Z,13.25
2018-04-20T09:56:05.940Z,12.30
2018-04-20T09:57:11.807Z,11.02
2018-04-20T09:58:16.585Z,12.80
2018-04-20T09:59:36.131Z,12.23
2018-04-20T10:00:41.854Z,16.98
2018-04-20T10:01:46.212Z,11.70
2018-04-20T10:02:51.467Z,12.80
2018-04-20T10:03:57.056Z,13.25
2018-04-20T10:05:01.596Z,11.02
2018-04-20T10:06:06.418Z,14.57
2018-04-20T10:07:11.227Z,12.30
2018-04-20T10:08:16.068Z,14.30
2018-04-20T10:09:20.115Z,11.07
2018-04-20T10:10:24.166Z,14.30
2018-04-20T10:11:28.220Z,10.75
2018-04-20T10:12:32.262Z,10.70
2018-04-20T10:13:36.622Z,12.40
2018-04-20T10:14:40.846Z,14.80
2018-04-20T10:15:45.012Z,11.15
2018-04-20T10:16:49.049Z,11.38
2018-04-20T10:17:54.172Z,12.25
2018-04-20T10:18:58.311Z,11.45
2018-04-20T10:20:02.622Z,10.32
2018-04-20T10:21:06.714Z,17.20
2018-04-20T10:22:11.565Z,13.05
2018-04-20T10:23:15.614Z,12.10
2018-04-20T10:24:20.479Z,11.18
2018-04-20T10:25:24.565Z,12.43
2018-04-20T10:26:29.313Z,12.32
2018-04-20T10:27:34.450Z,13.15
2018-04-20T10:28:38.955Z,9.73
2018-04-20T10:29:43.763Z,13.62
2018-04-20T10:30:47.782Z,10.85
2018-04-20T10:31:55.214Z,11.10
2018-04-20T10:33:00.045Z,18.50
2018-04-20T10:34:04.122Z,16.35
2018-04-20T10:35:08.996Z,13.23
2018-04-20T10:36:13.075Z,12.30
2018-04-20T10:37:17.086Z,13.82
2018-04-20T10:38:21.391Z,11.77
2018-04-20T10:39:25.486Z,11.45
2018-04-20T10:40:29.551Z,12.95
2018-04-20T10:41:33.650Z,13.60
2018-04-20T10:42:37.751Z,16.95
2018-04-20T10:43:41.807Z,20.95
2018-04-20T10:44:46.069Z,16.05
2018-04-20T10:45:51.606Z,13.45
2018-04-20T10:46:56.570Z,13.25
2018-04-20T10:48:00.835Z,11.70
2018-04-20T10:49:06.094Z,13.88
2018-04-20T10:50:10.343Z,13.77
2018-04-20T10:51:14.591Z,14.15
2018-04-20T10:52:18.810Z,15.20
2018-04-20T10:53:22.850Z,14.50
2018-04-20T10:54:26.882Z,16.33
2018-04-20T10:55:31.778Z,15.18
2018-04-20T10:56:35.834Z,14.48
2018-04-20T10:57:39.878Z,14.90
2018-04-20T10:58:43.957Z,14.95
2018-04-20T10:59:48.006Z,13.85
2018-04-20T11:00:52.866Z,13.40
2018-04-20T11:01:56.890Z,17.33
2018-04-20T11:03:01.208Z,14.40
2018-04-20T11:04:05.427Z,17.37
2018-04-20T11:05:09.644Z,18.37
2018-04-20T11:06:14.651Z,12.75
2018-04-20T11:07:19.023Z,13.93
2018-04-20T11:08:23.208Z,11.98
2018-04-20T11:09:27.414Z,14.90
2018-04-20T11:10:31.668Z,12.27
2018-04-20T11:11:35.737Z,15.57
2018-04-20T11:12:40.139Z,11.35
2018-04-20T11:13:44.192Z,12.43
2018-04-20T11:14:49.008Z,10.82
2018-04-20T11:15:53.040Z,12.57
2018-04-20T11:16:57.100Z,13.62
2018-04-20T11:18:01.299Z,12.32
2018-04-20T11:19:06.472Z,11.75
2018-04-20T11:20:10.702Z,13.00
2018-04-20T11:21:14.799Z,12.02
2018-04-20T11:22:19.183Z,12.57
2018-04-20T11:23:23.975Z,13.90
2018-04-20T11:24:29.058Z,12.85
2018-04-20T11:25:33.287Z,17.33
2018-04-20T11:26:37.485Z,12.35
2018-04-20T11:27:41.768Z,12.10
2018-04-20T11:28:45.963Z,13.30
2018-04-20T11:29:50.329Z,14.38
2018-04-20T11:30:55.139Z,13.73
2018-04-20T11:31:59.198Z,14.40
2018-04-20T11:33:03.350Z,14.38
2018-04-20T11:34:07.403Z,15.07
2018-04-20T11:35:11.457Z,13.18
2018-04-20T11:36:15.495Z,12.00
2018-04-20T11:37:19.680Z,14.18
2018-04-20T11:38:24.510Z,12.40
2018-04-20T11:39:29.338Z,22.33
2018-04-20T11:40:33.383Z,13.35
2018-04-20T11:41:37.458Z,14.05
2018-04-20T11:42:41.549Z,16.37
2018-04-20T11:43:45.601Z,11.82
2018-04-20T11:44:49.646Z,11.63
2018-04-20T11:45:54.178Z,13.95
2018-04-20T11:46:58.386Z,13.88
2018-04-20T11:48:03.211Z,13.62
2018-04-20T11:49:07.262Z,11.23
2018-04-20T11:50:12.427Z,10.90
2018-04-20T11:51:16.479Z,11.90
2018-04-20T11:52:20.581Z,12.93
2018-04-20T11:53:24.667Z,14.73
2018-04-20T11:54:28.698Z,19.40
2018-04-20T11:55:33.502Z,12.80
2018-04-20T11:56:38.315Z,13.13
2018-04-20T11:57:42.350Z,9.95
2018-04-20T11:58:47.335Z,11.70
2018-04-20T11:59:51.527Z,11.18
2018-04-20T12:00:55.739Z,10.57
2018-04-20T12:02:00.535Z,13.05
2018-04-20T12:03:04.632Z,11.25
2018-04-20T12:04:08.676Z,12.18
2018-04-20T12:05:12.796Z,12.63
2018-04-20T12:06:17.618Z,10.93
2018-04-20T12:07:22.439Z,13.88
2018-04-20T12:08:27.267Z,10.82
2018-04-20T12:09:31.438Z,15.68
2018-04-20T12:10:35.456Z,11.32
2018-04-20T12:11:40.300Z,10.93
2018-04-20T12:12:44.339Z,11.48
2018-04-20T12:13:49.853Z,13.38
2018-04-20T12:14:54.288Z,11.95
2018-04-20T12:15:58.331Z,9.63
2018-04-20T12:17:03.174Z,9.45
2018-04-20T12:18:07.274Z,11.45
2018-04-20T12:19:11.320Z,10.32
2018-04-20T12:20:15.667Z,12.27
2018-04-20T12:21:20.076Z,12.57
2018-04-20T12:22:24.891Z,16.85
2018-04-20T12:23:29.786Z,10.57
2018-04-20T12:24:33.874Z,12.30
2018-04-20T12:25:37.974Z,12.55
2018-04-20T12:26:42.918Z,12.57
2018-04-20T12:27:48.135Z,13.35
2018-04-20T12:28:52.248Z,11.27
2018-04-20T12:29:57.184Z,8.77
2018-04-20T12:31:02.027Z,10.95
2018-04-20T12:32:06.087Z,12.85
2018-04-20T12:33:10.088Z,15.90
2018-04-20T12:34:14.130Z,10.95
2018-04-20T12:35:18.247Z,10.98
2018-04-20T12:36:22.269Z,12.70
2018-04-20T12:37:26.358Z,9.70
2018-04-20T12:38:30.711Z,12.88
2018-04-20T12:39:35.130Z,10.88
2018-04-20T12:40:40.146Z,9.48
2018-04-20T12:41:44.246Z,11.90
2018-04-20T12:42:49.123Z,12.52
2018-04-20T12:43:53.355Z,12.90
2018-04-20T12:45:00.858Z,14.30
2018-04-20T12:46:05.185Z,9.85
2018-04-20T12:47:10.186Z,11.32
2018-04-20T12:48:14.419Z,12.50
2018-04-20T12:49:18.636Z,11.32
2018-04-20T12:50:22.834Z,10.18
2018-04-20T12:51:27.059Z,14.13
2018-04-20T12:52:32.055Z,9.95
2018-04-20T12:53:36.346Z,11.75
2018-04-20T12:54:41.384Z,11.57
2018-04-20T12:55:45.606Z,12.77
2018-04-20T12:56:51.175Z,15.93
2018-04-20T12:57:55.408Z,11.30
2018-04-20T12:59:00.114Z,9.80
2018-04-20T13:00:04.325Z,8.73
2018-04-20T13:01:08.674Z,9.00
2018-04-20T13:02:13.573Z,9.52
2018-04-20T13:03:18.568Z,14.20
2018-04-20T13:04:22.822Z,9.10
2018-04-20T13:05:27.062Z,8.68
2018-04-20T13:06:31.288Z,13.90
2018-04-20T13:07:35.915Z,11.60
2018-04-20T13:08:41.103Z,9.05
2018-04-20T13:09:45.290Z,11.32
2018-04-20T13:10:50.372Z,14.85
2018-04-20T13:11:55.386Z,7.72
2018-04-20T13:12:59.621Z,12.25
2018-04-20T13:14:04.616Z,11.73
2018-04-20T13:15:08.829Z,10.85
2018-04-20T13:16:13.075Z,13.50
2018-04-20T13:17:17.347Z,12.77
2018-04-20T13:18:22.367Z,9.23
2018-04-20T13:19:26.634Z,22.13
2018-04-20T13:20:30.814Z,13.65
2018-04-20T13:21:34.858Z,10.13
2018-04-20T13:22:39.365Z,8.85
2018-04-20T13:23:43.492Z,9.88
2018-04-20T13:24:49.542Z,10.93
2018-04-20T13:25:53.589Z,10.48
2018-04-20T13:26:57.787Z,12.88
2018-04-20T13:28:01.863Z,9.57
2018-04-20T13:29:06.144Z,12.25
2018-04-20T13:30:10.424Z,9.85
2018-04-20T13:31:14.646Z,13.38
2018-04-20T13:32:18.848Z,14.25
2018-04-20T13:33:23.123Z,13.55
2018-04-20T13:34:27.400Z,11.30
2018-04-20T13:35:31.554Z,8.95
2018-04-20T13:36:36.356Z,9.88
2018-04-20T13:37:40.617Z,13.88
2018-04-20T13:38:45.518Z,13.18
2018-04-20T13:39:49.684Z,12.15
2018-04-20T13:40:58.861Z,13.25
2018-04-20T13:42:02.991Z,9.25
2018-04-20T13:43:07.355Z,13.93
2018-04-20T13:44:11.467Z,12.00
2018-04-20T13:45:16.492Z,10.07
2018-04-20T13:46:20.585Z,11.18
2018-04-20T13:47:24.808Z,16.62
2018-04-20T13:48:29.704Z,15.70
2018-04-20T13:49:33.928Z,11.32
2018-04-20T13:50:38.194Z,9.52
2018-04-20T13:51:42.522Z,12.00
2018-04-20T13:52:46.894Z,13.75